Time;durP1;ratioP1;P1;durP2;ratioP2;P2;SDS_P1;SDS_P2;PMS_P1;PMS_P2;Temp;Humidity;BMP_temperature;BMP_pressure;BME280_temperature;BME280_humidity;BME280_pressure;Samples;Min_cycle;Max_cycle;Signal;HPM_P1;HPM_P2
2022/09/12 00:01:27;;;;;;;17.47;12.80;;;;;;;9.15;100.00;98611.77;2249133;78;21007;-80
2022/09/12 00:04:28;;;;;;;12.87;10.50;;;;;;;9.14;100.00;98613.05;2249144;78;21359;-81
2022/09/12 00:07:28;;;;;;;18.90;11.00;;;;;;;9.12;100.00;98613.46;2249174;78;20987;-80
2022/09/12 00:10:29;;;;;;;16.00;10.90;;;;;;;9.10;100.00;98614.74;2249257;79;20947;-81
2022/09/12 00:13:29;;;;;;;12.63;10.70;;;;;;;9.08;100.00;98615.58;2249075;79;20975;-81
2022/09/12 00:16:29;;;;;;;15.00;12.37;;;;;;;9.06;100.00;98618.58;2249239;78;20948;-80
2022/09/12 00:19:30;;;;;;;12.23;10.80;;;;;;;9.03;100.00;98613.34;2248992;78;20935;-81
2022/09/12 00:22:30;;;;;;;13.27;10.50;;;;;;;9.04;100.00;98618.98;2249211;78;20987;-80
2022/09/12 00:25:30;;;;;;;13.60;10.40;;;;;;;9.02;100.00;98608.98;2249217;79;21304;-81
2022/09/12 00:28:31;;;;;;;13.53;10.47;;;;;;;9.02;100.00;98608.98;2249144;78;20975;-81
2022/09/12 00:31:31;;;;;;;12.53;8.73;;;;;;;9.02;100.00;98613.76;2249202;79;20991;-80
2022/09/12 00:34:32;;;;;;;13.03;9.80;;;;;;;9.01;100.00;98610.70;2249079;78;21336;-82
2022/09/12 00:37:32;;;;;;;11.20;8.97;;;;;;;9.00;100.00;98611.98;2249137;78;20948;-80
2022/09/12 00:40:32;;;;;;;16.10;9.53;;;;;;;9.00;100.00;98612.86;2249106;79;20979;-80
2022/09/12 00:43:33;;;;;;;11.10;9.17;;;;;;;9.00;100.00;98610.26;2249097;79;20967;-80
2022/09/12 00:46:33;;;;;;;14.83;8.87;;;;;;;9.01;100.00;98608.53;2249236;78;21300;-79
2022/09/12 00:49:34;;;;;;;16.80;10.13;;;;;;;9.00;100.00;98608.08;2249078;78;20915;-79
2022/09/12 00:52:34;;;;;;;14.60;10.10;;;;;;;8.98;100.00;98602.85;2248891;78;20960;-82
2022/09/12 00:55:35;;;;;;;16.07;12.20;;;;;;;8.98;100.00;98608.48;2249047;79;20916;-80
2022/09/12 00:58:35;;;;;;;15.40;12.87;;;;;;;8.95;100.00;98605.41;2250426;78;21317;-80
2022/09/12 01:01:35;;;;;;;15.90;14.00;;;;;;;8.93;100.00;98606.70;2290972;78;20897;-80
2022/09/12 01:04:36;;;;;;;16.60;14.40;;;;;;;8.92;100.00;98606.25;2291193;78;20888;-80
2022/09/12 01:07:36;;;;;;;17.00;13.57;;;;;;;8.91;100.00;98607.09;2290960;78;21351;-81
2022/09/12 01:10:37;;;;;;;16.23;13.13;;;;;;;8.89;100.00;98608.80;2290983;78;20995;-80
2022/09/12 01:13:37;;;;;;;16.43;12.50;;;;;;;8.86;100.00;98606.58;2290899;78;21327;-81
2022/09/12 01:16:37;;;;;;;14.23;12.00;;;;;;;8.82;100.00;98607.39;2290948;78;20975;-80
2022/09/12 01:19:38;;;;;;;16.70;12.03;;;;;;;8.81;100.00;98611.72;2290496;78;20929;-79
2022/09/12 01:22:38;;;;;;;14.53;13.10;;;;;;;8.80;100.00;98608.67;2291225;78;20988;-81
2022/09/12 01:25:39;;;;;;;16.40;13.70;;;;;;;8.79;100.00;98609.95;2290948;78;20893;-82
2022/09/12 01:28:39;;;;;;;17.63;14.23;;;;;;;8.78;100.00;98604.30;2291339;78;20959;-81
2022/09/12 01:31:39;;;;;;;15.37;12.67;;;;;;;8.76;100.00;98613.37;2291464;78;20975;-82
2022/09/12 01:34:40;;;;;;;21.13;12.53;;;;;;;8.76;100.00;98603.39;2291016;78;20944;-80
2022/09/12 01:37:40;;;;;;;13.57;11.00;;;;;;;8.76;100.00;98608.59;2290726;78;20924;-80
2022/09/12 01:40:41;;;;;;;13.20;10.87;;;;;;;8.75;100.00;98597.31;2290797;78;21296;-82
2022/09/12 01:43:41;;;;;;;16.13;10.67;;;;;;;8.73;100.00;98602.92;2290874;78;20991;-80
2022/09/12 01:46:41;;;;;;;14.53;10.83;;;;;;;8.74;100.00;98604.67;2291118;78;20916;-81
2022/09/12 01:49:42;;;;;;;13.37;10.63;;;;;;;8.73;100.00;98599.45;2291199;78;20929;-81
2022/09/12 01:52:42;;;;;;;15.60;11.33;;;;;;;8.73;100.00;98604.22;2290968;78;21352;-81
2022/09/12 01:55:43;;;;;;;14.43;11.50;;;;;;;8.73;100.00;98603.34;2290875;78;20944;-83
2022/09/12 01:58:43;;;;;;;14.97;10.80;;;;;;;8.70;100.00;98609.38;2290449;78;20932;-80
2022/09/12 02:01:44;;;;;;;17.23;11.30;;;;;;;8.67;100.00;98609.33;2281262;78;20934;-81
2022/09/12 02:04:45;;;;;;;12.93;11.57;;;;;;;8.65;100.00;98607.10;2281227;78;20958;-82
2022/09/12 02:07:45;;;;;;;18.07;12.13;;;;;;;8.63;100.00;98608.80;2281058;78;20989;-82
2022/09/12 02:10:45;;;;;;;20.00;13.30;;;;;;;8.65;100.00;98611.00;2281568;78;20965;-82
2022/09/12 02:13:45;;;;;;;17.27;12.57;;;;;;;8.65;100.00;98614.03;2281523;78;21353;-81
2022/09/12 02:16:46;;;;;;;16.10;14.30;;;;;;;8.65;100.00;98614.91;2281944;78;20911;-82
2022/09/12 02:19:46;;;;;;;17.30;14.00;;;;;;;8.69;100.00;98614.14;2282731;78;20976;-83
2022/09/12 02:22:46;;;;;;;16.43;13.17;;;;;;;8.72;100.00;98619.81;2282094;78;20993;-82
2022/09/12 02:25:47;;;;;;;18.40;14.00;;;;;;;8.73;100.00;98619.84;2282061;78;20989;-82
2022/09/12 02:28:47;;;;;;;24.03;17.43;;;;;;;8.73;100.00;98624.17;2282196;78;20969;-81
2022/09/12 02:31:48;;;;;;;23.17;16.50;;;;;;;8.70;100.00;98626.30;2281964;78;20965;-82
2022/09/12 02:34:48;;;;;;;17.17;15.33;;;;;;;8.65;100.00;98622.71;2281830;78;21004;-83
2022/09/12 02:37:48;;;;;;;21.10;15.80;;;;;;;8.63;100.00;98620.09;2281756;78;21271;-83
2022/09/12 02:40:49;;;;;;;25.40;17.97;;;;;;;8.60;100.00;98620.03;2282208;78;20965;-84
2022/09/12 02:43:49;;;;;;;25.13;17.03;;;;;;;8.58;100.00;98623.47;2281979;78;21326;-82
2022/09/12 02:46:50;;;;;;;21.60;17.87;;;;;;;8.60;100.00;98619.16;2281681;78;21012;-84
2022/09/12 02:49:50;;;;;;;25.40;19.23;;;;;;;8.59;100.00;98618.72;2281611;78;20961;-81
2022/09/12 02:52:52;;;;;;;20.77;18.50;;;;;;;8.58;100.00;98618.27;2274386;78;20966;-82
2022/09/12 02:55:51;;;;;;;24.87;20.00;;;;;;;8.56;100.00;98618.23;2280299;78;20974;-83
2022/09/12 02:58:54;;;;;;;25.10;19.80;;;;;;;8.56;100.00;98619.54;2281021;78;20954;-82
2022/09/12 03:01:54;;;;;;;28.10;20.80;;;;;;;8.55;100.00;98615.61;2283519;78;20994;-82
2022/09/12 03:04:55;;;;;;;23.47;18.83;;;;;;;8.56;100.00;98616.06;2283850;77;20916;-83
2022/09/12 03:07:55;;;;;;;19.67;17.57;;;;;;;8.58;100.00;98616.96;2283486;77;20940;-82
2022/09/12 03:10:56;;;;;;;19.97;17.80;;;;;;;8.60;100.00;98616.56;2284195;78;20980;-83
2022/09/12 03:13:56;;;;;;;17.00;14.53;;;;;;;8.64;100.00;98627.47;2283416;78;20952;-82
2022/09/12 03:16:56;;;;;;;20.93;15.53;;;;;;;8.65;100.00;98618.81;2283562;77;20959;-82
2022/09/12 03:19:57;;;;;;;25.13;16.13;;;;;;;8.70;100.00;98626.30;2283364;77;20952;-83
2022/09/12 03:22:57;;;;;;;20.50;16.37;;;;;;;8.72;100.00;98628.49;2282668;77;20928;-81
2022/09/12 03:25:58;;;;;;;18.70;15.43;;;;;;;8.73;100.00;98629.37;2282972;77;20908;-83
2022/09/12 03:28:58;;;;;;;18.37;13.20;;;;;;;8.76;100.00;98633.33;2283389;78;21406;-82
2022/09/12 03:31:59;;;;;;;23.97;15.40;;;;;;;8.75;100.00;98637.66;2283140;77;20924;-82
2022/09/12 03:34:59;;;;;;;25.17;16.17;;;;;;;8.77;100.00;98638.55;2283860;78;21026;-81
2022/09/12 03:37:59;;;;;;;21.80;15.90;;;;;;;8.79;100.00;98645.08;2282912;77;21522;-83
2022/09/12 03:41:00;;;;;;;25.47;16.17;;;;;;;8.81;100.00;98640.77;2282695;78;20911;-81
2022/09/12 03:44:02;;;;;;;17.00;14.50;;;;;;;8.82;100.00;98651.20;2283004;77;20928;-82
2022/09/12 03:47:02;;;;;;;20.47;15.67;;;;;;;8.83;100.00;98653.38;2260522;78;21292;-82
2022/09/12 03:50:03;;;;;;;20.97;16.03;;;;;;;8.84;100.00;98657.73;2283359;78;20920;-82
2022/09/12 03:53:03;;;;;;;19.47;17.20;;;;;;;8.85;100.00;98655.16;2283712;77;21010;-82
2022/09/12 03:56:04;;;;;;;20.53;17.63;;;;;;;8.86;100.00;98651.70;2283782;77;21371;-81
2022/09/12 03:59:04;;;;;;;23.43;18.00;;;;;;;8.88;100.00;98659.11;2282607;77;20956;-82
2022/09/12 04:02:05;;;;;;;19.40;16.00;;;;;;;8.89;100.00;98659.98;2280052;78;20954;-81
2022/09/12 04:05:05;;;;;;;18.20;14.53;;;;;;;8.91;100.00;98664.37;2279648;78;20981;-80
2022/09/12 04:08:05;;;;;;;15.27;13.77;;;;;;;8.92;100.00;98663.52;2279785;78;21354;-82
2022/09/12 04:11:06;;;;;;;25.80;15.07;;;;;;;8.94;100.00;98658.33;2280487;78;20910;-82
2022/09/12 04:14:06;;;;;;;20.37;14.30;;;;;;;8.93;100.00;98656.58;2280455;78;20954;-84
2022/09/12 04:17:07;;;;;;;15.90;13.63;;;;;;;8.91;100.00;98659.16;2279376;78;21369;-82
2022/09/12 04:20:07;;;;;;;17.53;14.33;;;;;;;8.89;100.00;98659.56;2279559;78;20961;-84
2022/09/12 04:23:07;;;;;;;18.40;13.87;;;;;;;8.87;100.00;98662.99;2279852;78;20969;-83
2022/09/12 04:26:08;;;;;;;18.03;14.07;;;;;;;8.86;100.00;98666.02;2279719;78;20934;-83
2022/09/12 04:29:09;;;;;;;14.70;13.20;;;;;;;8.86;100.00;98663.42;2279772;78;21338;-82
2022/09/12 04:32:09;;;;;;;21.33;14.80;;;;;;;8.85;100.00;98668.17;2279455;78;21454;-83
2022/09/12 04:35:11;;;;;;;20.57;14.73;;;;;;;8.85;100.00;98673.80;2279988;78;20998;-82
2022/09/12 04:38:09;;;;;;;17.67;14.17;;;;;;;8.83;100.00;98665.09;2279933;78;21345;-82
2022/09/12 04:41:10;;;;;;;17.63;15.40;;;;;;;8.81;100.00;98672.88;2280364;78;21021;-83
2022/09/12 04:44:10;;;;;;;25.17;15.93;;;;;;;8.83;100.00;98680.72;2280883;78;20981;-83
2022/09/12 04:47:11;;;;;;;18.03;15.67;;;;;;;8.85;100.00;98677.71;2280910;78;21334;-84
2022/09/12 04:50:11;;;;;;;22.17;16.87;;;;;;;8.85;100.00;98681.19;2279977;78;20957;-82
2022/09/12 04:53:11;;;;;;;19.37;15.53;;;;;;;8.88;100.00;98679.94;2279342;78;21046;-83
2022/09/12 04:56:12;;;;;;;21.27;16.20;;;;;;;8.93;100.00;98680.88;2279069;78;20930;-80
2022/09/12 04:59:13;;;;;;;21.93;16.63;;;;;;;9.00;100.00;98688.79;2279202;78;20961;-81
2022/09/12 05:02:13;;;;;;;25.03;17.47;;;;;;;9.09;100.00;98683.72;2247471;78;20939;-81
2022/09/12 05:05:13;;;;;;;26.33;17.83;;;;;;;9.13;100.00;98692.03;2245707;78;20920;-80
2022/09/12 05:08:14;;;;;;;24.30;18.30;;;;;;;9.17;100.00;98698.61;2246023;79;21698;-81
2022/09/12 05:11:14;;;;;;;22.47;20.07;;;;;;;9.20;100.00;98702.98;2245998;78;20909;-81
2022/09/12 05:14:14;;;;;;;26.97;22.27;;;;;;;9.20;100.00;98699.08;2246119;78;20897;-81
2022/09/12 05:17:15;;;;;;;25.20;21.37;;;;;;;9.21;100.00;98700.83;2246486;78;21088;-83
2022/09/12 05:20:16;;;;;;;27.70;18.50;;;;;;;9.28;100.00;98710.91;2247341;78;20892;-83
2022/09/12 05:23:18;;;;;;;20.87;18.27;;;;;;;9.35;100.00;98709.72;2246610;78;20959;-84
2022/09/12 05:26:20;;;;;;;25.07;19.33;;;;;;;9.35;100.00;98701.91;2246991;79;21408;-84
2022/09/12 05:29:19;;;;;;;21.20;17.70;;;;;;;9.38;100.00;98703.68;2246585;79;21658;-82
2022/09/12 05:32:20;;;;;;;22.47;17.83;;;;;;;9.41;100.00;98719.36;2247286;78;20912;-82
2022/09/12 05:35:20;;;;;;;22.07;17.10;;;;;;;9.43;100.00;98712.44;2246829;79;20935;-81
2022/09/12 05:38:23;;;;;;;21.23;16.80;;;;;;;9.46;100.00;98713.36;2246422;78;20987;-81
2022/09/12 05:41:21;;;;;;;22.37;17.43;;;;;;;9.53;100.00;98713.89;2246818;79;21390;-82
2022/09/12 05:44:21;;;;;;;20.00;16.73;;;;;;;9.63;100.00;98725.77;2247133;79;21320;-82
2022/09/12 05:47:22;;;;;;;18.47;16.50;;;;;;;9.68;100.00;98721.50;2247934;78;20924;-83
2022/09/12 05:50:22;;;;;;;28.40;16.97;;;;;;;9.69;100.00;98718.91;2248488;79;20928;-82
2022/09/12 05:53:27;;;;;;;17.33;15.47;;;;;;;9.79;100.00;98710.78;2247224;78;20967;-81
2022/09/12 05:56:23;;;;;;;20.40;15.70;;;;;;;9.85;100.00;98708.25;2248208;79;21019;-84
2022/09/12 05:59:23;;;;;;;20.30;14.97;;;;;;;9.95;100.00;98710.12;2246987;78;20948;-84
2022/09/12 06:02:24;;;;;;;16.90;15.27;;;;;;;10.02;100.00;98708.03;2277265;77;20974;-83
2022/09/12 06:05:24;;;;;;;23.80;16.03;;;;;;;10.14;100.00;98717.73;2278978;78;20945;-82
2022/09/12 06:08:25;;;;;;;17.83;14.17;;;;;;;10.30;100.00;98710.55;2279552;78;20934;-81
2022/09/12 06:11:25;;;;;;;15.73;13.23;;;;;;;10.45;100.00;98701.61;2279877;78;20969;-83
2022/09/12 06:14:28;;;;;;;19.37;12.87;;;;;;;10.58;100.00;98699.99;2260049;78;21604;-85
2022/09/12 06:17:28;;;;;;;15.90;11.87;;;;;;;10.74;100.00;98699.27;2279155;78;20918;-82
2022/09/12 06:20:29;;;;;;;15.17;13.10;;;;;;;10.82;100.00;98694.12;2279313;78;20985;-84
2022/09/12 06:23:29;;;;;;;14.03;12.60;;;;;;;10.87;100.00;98701.98;2278933;78;21417;-83
2022/09/12 06:26:29;;;;;;;19.00;11.47;;;;;;;10.86;100.00;98697.20;2279133;78;20910;-82
2022/09/12 06:29:31;;;;;;;19.50;13.55;;;;;;;10.94;100.00;98700.74;2278839;78;20922;-83
2022/09/12 06:32:30;;;;;;;15.55;12.37;;;;;;;10.98;100.00;98705.13;2278518;78;20977;-82
2022/09/12 06:35:30;;;;;;;13.98;12.03;;;;;;;11.11;100.00;98709.58;2279005;78;20926;-83
2022/09/12 06:38:31;;;;;;;14.30;12.33;;;;;;;11.15;100.00;98704.83;2279143;78;20938;-82
2022/09/12 06:41:31;;;;;;;21.70;11.93;;;;;;;11.21;100.00;98702.69;2279506;78;20981;-83
2022/09/12 06:44:32;;;;;;;18.20;11.63;;;;;;;11.36;100.00;98704.13;2279094;78;21025;-84
2022/09/12 06:47:32;;;;;;;20.65;12.30;;;;;;;11.47;99.60;98706.37;2278682;78;20895;-80
2022/09/12 06:50:32;;;;;;;15.45;11.28;;;;;;;11.51;98.62;98713.80;2278695;78;20934;-83
2022/09/12 06:53:33;;;;;;;17.87;10.55;;;;;;;11.60;98.42;98711.67;2278072;78;20992;-82
2022/09/12 06:56:33;;;;;;;13.30;11.25;;;;;;;11.62;97.38;98719.97;2279018;78;20973;-83
2022/09/12 06:59:34;;;;;;;16.93;10.75;;;;;;;11.61;98.07;98717.34;2278602;78;20997;-83
2022/09/12 07:02:34;;;;;;;13.22;11.03;;;;;;;11.65;98.15;98718.67;2278303;78;20946;-83
2022/09/12 07:05:36;;;;;;;16.23;10.50;;;;;;;11.71;97.74;98725.68;2278197;78;20949;-85
2022/09/12 07:08:36;;;;;;;13.72;9.75;;;;;;;11.83;97.76;98723.16;2278834;78;21396;-83
2022/09/12 07:11:35;;;;;;;10.43;8.93;;;;;;;12.11;97.63;98718.48;2279123;78;20969;-84
2022/09/12 07:14:36;;;;;;;11.30;8.00;;;;;;;12.30;95.22;98723.38;2279074;78;20933;-84
2022/09/12 07:17:36;;;;;;;13.53;8.13;;;;;;;12.33;93.32;98722.08;2279130;78;20942;-84
2022/09/12 07:20:38;;;;;;;10.53;9.43;;;;;;;12.27;93.43;98719.87;2279095;78;21398;-83
2022/09/12 07:23:38;;;;;;;9.90;8.08;;;;;;;12.42;93.46;98731.27;2279393;78;21013;-84
2022/09/12 07:26:38;;;;;;;13.38;8.58;;;;;;;12.61;92.19;98726.94;2279980;78;20921;-82
2022/09/12 07:29:38;;;;;;;8.75;7.33;;;;;;;12.84;94.72;98722.17;2279268;78;20890;-83
2022/09/12 07:32:38;;;;;;;11.60;7.62;;;;;;;13.05;91.33;98731.38;2279365;77;20988;-82
2022/09/12 07:35:38;;;;;;;12.30;7.08;;;;;;;13.07;91.52;98727.02;2278717;78;20981;-83
2022/09/12 07:38:39;;;;;;;11.25;7.08;;;;;;;13.42;90.41;98724.83;2278860;78;21305;-78
2022/09/12 07:41:39;;;;;;;10.00;6.70;;;;;;;13.50;87.72;98730.50;2278410;78;20942;-84
2022/09/12 07:44:40;;;;;;;15.65;9.23;;;;;;;13.55;86.57;98738.36;2278807;78;20918;-83
2022/09/12 07:47:40;;;;;;;9.98;6.75;;;;;;;13.64;88.00;98731.78;2279806;78;20926;-84
2022/09/12 07:50:41;;;;;;;12.03;6.90;;;;;;;13.62;85.63;98730.92;2279064;78;21388;-84
2022/09/12 07:53:42;;;;;;;7.65;5.55;;;;;;;13.50;85.55;98738.37;2279274;78;20994;-84
2022/09/12 07:56:41;;;;;;;7.67;6.00;;;;;;;13.49;86.22;98735.31;2278884;78;21408;-84
2022/09/12 07:59:42;;;;;;;7.45;5.60;;;;;;;13.86;86.31;98732.60;2279410;78;20966;-83
2022/09/12 08:02:42;;;;;;;11.22;5.28;;;;;;;13.99;85.03;98733.02;2251845;78;20964;-83
2022/09/12 08:05:43;;;;;;;6.25;4.78;;;;;;;14.18;82.82;98732.52;2247841;78;20924;-81
2022/09/12 08:08:43;;;;;;;9.80;4.90;;;;;;;14.10;81.11;98736.92;2247061;78;20948;-81
2022/09/12 08:11:43;;;;;;;6.80;4.72;;;;;;;14.02;81.91;98743.07;2247373;79;20943;-83
2022/09/12 08:14:44;;;;;;;5.97;3.75;;;;;;;14.34;83.57;98738.13;2247053;78;20940;-81
2022/09/12 08:17:44;;;;;;;7.03;4.62;;;;;;;14.41;79.94;98733.72;2246704;79;20944;-84
2022/09/12 08:20:45;;;;;;;12.68;4.12;;;;;;;14.40;79.16;98739.41;2247622;79;20940;-81
2022/09/12 08:23:45;;;;;;;8.93;3.87;;;;;;;14.67;79.58;98731.84;2247212;78;21023;-83
2022/09/12 08:26:45;;;;;;;8.48;3.92;;;;;;;14.97;79.33;98739.98;2247796;78;20971;-84
2022/09/12 08:29:46;;;;;;;5.80;3.80;;;;;;;15.18;77.79;98731.93;2247680;79;21580;-84
2022/09/12 08:32:46;;;;;;;9.58;4.78;;;;;;;15.00;74.99;98735.15;2247486;78;20979;-83
2022/09/12 08:35:47;;;;;;;6.22;3.70;;;;;;;15.14;75.88;98738.54;2247631;78;20924;-82
2022/09/12 08:38:48;;;;;;;6.72;3.47;;;;;;;15.27;74.06;98746.31;2247464;78;20876;-83
2022/09/12 08:41:48;;;;;;;7.00;3.55;;;;;;;15.52;71.75;98746.09;2246954;79;21335;-84
2022/09/12 08:44:48;;;;;;;5.47;3.50;;;;;;;15.40;71.84;98736.55;2245720;78;20912;-83
2022/09/12 08:47:49;;;;;;;5.20;3.10;;;;;;;15.27;70.51;98748.07;2246770;78;20958;-83
2022/09/12 08:50:49;;;;;;;4.72;2.90;;;;;;;15.48;69.48;98750.95;2245690;79;21643;-82
2022/09/12 08:53:49;;;;;;;8.53;3.10;;;;;;;15.64;67.88;98753.93;2245870;78;20968;-82
2022/09/12 08:56:50;;;;;;;7.78;2.95;;;;;;;15.66;69.39;98744.70;2246041;79;20920;-83
2022/09/12 08:59:51;;;;;;;6.97;2.85;;;;;;;15.50;68.87;98743.92;2246901;78;20917;-81
2022/09/12 09:02:51;;;;;;;4.00;2.67;;;;;;;15.51;66.43;98745.22;2246421;77;21309;-81
2022/09/12 09:05:51;;;;;;;3.20;2.60;;;;;;;15.64;66.32;98750.43;2246191;79;20889;-81
2022/09/12 09:08:52;;;;;;;3.87;2.55;;;;;;;15.79;65.78;98740.62;2246941;78;20963;-82
2022/09/12 09:11:55;;;;;;;4.83;2.80;;;;;;;16.03;67.14;98746.05;2248168;78;20931;-82
2022/09/12 09:14:55;;;;;;;5.60;2.80;;;;;;;16.49;65.64;98746.38;2247043;78;20916;-81
2022/09/12 09:17:56;;;;;;;4.17;2.40;;;;;;;16.34;65.64;98747.86;2247784;78;20912;-82
2022/09/12 09:20:56;;;;;;;9.83;2.62;;;;;;;16.11;65.08;98744.64;2247317;79;20955;-83
2022/09/12 09:23:56;;;;;;;4.92;2.75;;;;;;;15.92;62.94;98751.44;2247036;78;21395;-82
2022/09/12 09:26:57;;;;;;;4.35;2.40;;;;;;;16.06;65.09;98743.83;2246342;78;20928;-81
2022/09/12 09:29:58;;;;;;;2.98;2.12;;;;;;;16.36;62.58;98743.89;2246703;78;20959;-82
2022/09/12 09:32:58;;;;;;;5.37;2.50;;;;;;;16.36;61.57;98739.94;2246569;78;20955;-81
2022/09/12 09:35:58;;;;;;;3.50;2.37;;;;;;;16.07;62.33;98749.52;2247013;78;20909;-83
2022/09/12 09:38:59;;;;;;;3.72;2.62;;;;;;;15.77;63.69;98748.09;2246732;78;20967;-83
2022/09/12 09:41:59;;;;;;;3.02;2.00;;;;;;;15.65;64.65;98745.15;2246043;78;20924;-82
2022/09/12 09:44:59;;;;;;;5.30;2.37;;;;;;;15.92;63.05;98756.70;2245861;78;20942;-81
2022/09/12 09:48:00;;;;;;;4.47;2.12;;;;;;;16.11;60.79;98745.95;2245982;78;20924;-83
2022/09/12 09:51:00;;;;;;;8.58;3.17;;;;;;;16.07;61.72;98745.13;2246916;79;20885;-82
2022/09/12 09:54:00;;;;;;;4.72;2.47;;;;;;;15.85;62.60;98752.84;2246411;78;20963;-81
2022/09/12 09:57:01;;;;;;;7.03;2.12;;;;;;;15.59;61.78;98765.78;2245890;78;20916;-82
2022/09/12 10:00:01;;;;;;;7.00;2.20;;;;;;;15.81;62.50;98755.08;2246407;78;20964;-81
2022/09/12 10:03:02;;;;;;;2.58;1.80;;;;;;;16.06;59.65;98751.28;2271267;77;20984;-81
2022/09/12 10:06:02;;;;;;;2.37;1.80;;;;;;;16.03;60.98;98747.81;2278093;78;21345;-82
2022/09/12 10:09:02;;;;;;;4.95;2.67;;;;;;;16.16;60.88;98753.36;2278276;78;20922;-81
2022/09/12 10:12:03;;;;;;;3.35;2.00;;;;;;;16.48;58.75;98759.13;2278573;78;20945;-82
2022/09/12 10:15:04;;;;;;;3.65;1.92;;;;;;;16.28;57.08;98765.06;2279078;78;20874;-81
2022/09/12 10:18:04;;;;;;;3.92;1.67;;;;;;;15.97;56.21;98774.20;2278074;78;20930;-81
2022/09/12 10:21:04;;;;;;;2.65;1.87;;;;;;;16.19;58.64;98762.54;2278901;78;21006;-82
2022/09/12 10:24:04;;;;;;;3.50;2.05;;;;;;;16.24;57.41;98763.36;2278539;78;20965;-81
2022/09/12 10:27:05;;;;;;;3.40;1.65;;;;;;;16.14;57.35;98757.77;2278846;77;21301;-79
2022/09/12 10:30:05;;;;;;;3.20;1.70;;;;;;;16.43;57.71;98759.59;2278031;78;20965;-80
2022/09/12 10:33:06;;;;;;;7.58;1.85;;;;;;;16.50;57.53;98760.42;2279246;78;20981;-81
2022/09/12 10:36:06;;;;;;;4.53;2.22;;;;;;;16.58;55.24;98765.59;2278276;78;21342;-81
2022/09/12 10:39:06;;;;;;;3.12;2.00;;;;;;;16.39;55.46;98772.38;2279358;78;20946;-80
2022/09/12 10:42:07;;;;;;;2.95;2.10;;;;;;;16.15;56.51;98775.31;2279397;77;21588;-81
2022/09/12 10:45:08;;;;;;;3.55;2.10;;;;;;;16.22;58.39;98768.64;2257092;78;21056;-81
2022/09/12 10:48:09;;;;;;;6.97;2.00;;;;;;;16.52;59.00;98770.05;2277449;78;21357;-81
2022/09/12 10:51:09;;;;;;;7.65;2.20;;;;;;;16.53;56.75;98769.60;2277001;77;20982;-81
2022/09/12 10:54:09;;;;;;;5.05;1.77;;;;;;;16.64;56.44;98776.05;2278032;78;21020;-81
2022/09/12 10:57:10;;;;;;;3.08;2.02;;;;;;;17.06;55.38;98766.23;2278044;78;20973;-81
2022/09/12 11:00:16;;;;;;;4.03;2.10;;;;;;;17.20;54.20;98773.48;2278323;78;20950;-80
2022/09/12 11:03:17;;;;;;;2.40;1.72;;;;;;;17.37;54.79;98760.49;2253064;78;20916;-81
2022/09/12 11:06:18;;;;;;;2.58;1.80;;;;;;;17.53;54.50;98757.14;2246606;79;20940;-82
2022/09/12 11:09:18;;;;;;;3.10;1.80;;;;;;;17.60;51.22;98773.30;2247243;79;20916;-80
2022/09/12 11:12:18;;;;;;;3.70;2.37;;;;;;;17.49;51.19;98770.84;2247208;78;21002;-81
2022/09/12 11:15:18;;;;;;;3.12;1.87;;;;;;;17.60;50.62;98768.02;2246942;78;20924;-81
2022/09/12 11:18:19;;;;;;;4.00;2.00;;;;;;;17.58;51.76;98785.20;2247378;79;20945;-82
2022/09/12 11:21:22;;;;;;;3.50;1.72;;;;;;;17.17;51.32;98784.52;2247895;78;20912;-82
2022/09/12 11:24:23;;;;;;;3.25;1.80;;;;;;;17.21;49.74;98771.71;2247391;79;21399;-81
2022/09/12 11:27:25;;;;;;;1.87;1.70;;;;;;;17.42;49.50;98771.39;2247438;78;20948;-81
2022/09/12 11:30:24;;;;;;;2.70;1.82;;;;;;;17.46;50.82;98764.30;2247281;78;20935;-81
2022/09/12 11:33:24;;;;;;;4.05;1.60;;;;;;;17.41;50.56;98776.70;2246505;79;20971;-82
2022/09/12 11:36:24;;;;;;;8.10;2.33;;;;;;;17.46;50.03;98770.44;2247012;78;20972;-84
2022/09/12 11:39:25;;;;;;;3.65;1.62;;;;;;;17.66;51.34;98767.49;2247442;78;20940;-83
2022/09/12 11:42:25;;;;;;;3.17;1.98;;;;;;;17.70;49.36;98771.81;2246618;79;21687;-83
2022/09/12 11:45:25;;;;;;;2.12;1.75;;;;;;;17.57;49.16;98762.34;2246679;78;20912;-81
2022/09/12 11:48:30;;;;;;;3.47;1.92;;;;;;;17.46;50.08;98766.94;2247582;78;20952;-83
2022/09/12 11:51:30;;;;;;;3.08;1.60;;;;;;;17.26;51.33;98771.64;2247051;79;21341;-83
2022/09/12 11:54:31;;;;;;;2.10;1.62;;;;;;;17.17;50.72;98776.16;2247480;79;20951;-83
2022/09/12 11:57:31;;;;;;;4.15;1.92;;;;;;;17.30;51.56;98764.09;2246269;78;20920;-82
2022/09/12 12:00:31;;;;;;;3.87;1.77;;;;;;;17.56;50.41;98763.69;2247368;78;20924;-83
2022/09/12 12:03:32;;;;;;;2.58;1.90;;;;;;;17.60;50.17;98758.33;2273574;77;20950;-82
2022/09/12 12:06:32;;;;;;;3.72;1.52;;;;;;;17.67;50.34;98772.32;2278827;78;20887;-83
2022/09/12 12:09:33;;;;;;;6.90;2.00;;;;;;;17.68;45.39;98769.66;2278284;78;21233;-82
2022/09/12 12:12:33;;;;;;;3.15;1.92;;;;;;;17.74;49.13;98773.95;2277205;78;21785;-83
2022/09/12 12:15:33;;;;;;;7.90;2.05;;;;;;;17.78;48.88;98768.59;2277578;78;21302;-83
2022/09/12 12:18:34;;;;;;;5.75;1.82;;;;;;;17.90;50.48;98765.30;2277864;78;20902;-81
2022/09/12 12:21:35;;;;;;;3.42;1.57;;;;;;;17.73;48.99;98771.77;2277558;78;20953;-83
2022/09/12 12:24:36;;;;;;;3.90;1.90;;;;;;;17.72;48.18;98768.70;2276777;78;21378;-81
2022/09/12 12:27:35;;;;;;;2.67;2.17;;;;;;;17.74;47.69;98763.39;2276629;78;20886;-83
2022/09/12 12:30:36;;;;;;;4.08;1.65;;;;;;;17.85;49.91;98772.44;2277659;78;20890;-82
2022/09/12 12:33:36;;;;;;;2.05;1.45;;;;;;;17.66;48.52;98767.49;2278291;78;21334;-83
2022/09/12 12:36:37;;;;;;;3.40;1.52;;;;;;;17.31;48.22;98781.22;2278878;78;20906;-83
2022/09/12 12:39:37;;;;;;;3.42;1.72;;;;;;;16.89;48.38;98785.39;2279205;78;21160;-84
2022/09/12 12:42:37;;;;;;;5.62;2.72;;;;;;;16.92;49.76;98781.39;2280157;78;20922;-84
2022/09/12 12:45:38;;;;;;;3.67;1.72;;;;;;;16.88;50.52;98781.01;2280037;78;20965;-84
2022/09/12 12:48:38;;;;;;;4.95;2.20;;;;;;;16.80;50.60;98781.12;2280265;78;20965;-84
2022/09/12 12:51:38;;;;;;;5.45;2.55;;;;;;;16.97;51.16;98774.73;2280373;78;21338;-84
2022/09/12 12:54:39;;;;;;;3.00;1.60;;;;;;;17.21;49.78;98778.30;2279674;78;20965;-84
2022/09/12 12:57:39;;;;;;;3.08;2.00;;;;;;;17.51;49.76;98769.92;2278889;78;20926;-83
2022/09/12 13:00:40;;;;;;;2.47;1.50;;;;;;;17.67;47.96;98765.27;2279655;77;21211;-84
2022/09/12 13:03:40;;;;;;;1.65;1.35;;;;;;;17.77;48.91;98758.06;2254605;77;20948;-84
2022/09/12 13:06:41;;;;;;;3.08;1.60;;;;;;;17.55;48.25;98797.13;2247721;78;21280;-84
2022/09/12 13:09:41;;;;;;;2.37;1.55;;;;;;;17.23;49.49;98776.52;2247834;78;20912;-85
2022/09/12 13:12:41;;;;;;;2.58;1.77;;;;;;;17.19;46.89;98771.73;2248155;78;20964;-85
2022/09/12 13:15:42;;;;;;;2.25;1.70;;;;;;;17.22;48.66;98771.27;2247738;79;20971;-85
2022/09/12 13:18:42;;;;;;;2.58;1.67;;;;;;;17.20;47.95;98779.20;2246440;79;20959;-83
2022/09/12 13:21:43;;;;;;;4.47;1.60;;;;;;;17.23;49.68;98775.20;2246584;78;20904;-85
2022/09/12 13:24:43;;;;;;;5.33;1.70;;;;;;;17.24;47.97;98773.43;2246751;78;21317;-84
2022/09/12 13:27:43;;;;;;;1.65;1.32;;;;;;;17.32;49.83;98763.63;2247227;78;20998;-85
2022/09/12 13:30:44;;;;;;;5.47;2.00;;;;;;;17.39;49.23;98765.30;2247467;78;20983;-85
2022/09/12 13:33:44;;;;;;;2.35;1.42;;;;;;;17.38;50.75;98762.23;2247303;78;20959;-84
2022/09/12 13:36:45;;;;;;;2.12;1.90;;;;;;;17.44;49.42;98766.09;2246631;78;20901;-84
2022/09/12 13:39:46;;;;;;;5.67;1.53;;;;;;;17.51;49.00;98779.60;2246834;79;20931;-85
2022/09/12 13:42:47;;;;;;;3.00;1.50;;;;;;;17.66;49.93;98758.67;2247262;78;20936;-84
2022/09/12 13:45:46;;;;;;;3.83;1.70;;;;;;;17.83;48.01;98767.19;2247641;78;20928;-84
2022/09/12 13:48:46;;;;;;;2.70;1.60;;;;;;;17.89;48.07;98750.36;2248918;78;21336;-83
2022/09/12 13:51:47;;;;;;;3.55;2.00;;;;;;;17.99;47.21;98744.00;2247190;78;21011;-82
2022/09/12 13:54:47;;;;;;;3.42;2.00;;;;;;;17.96;46.33;98749.34;2247277;78;20908;-84
2022/09/12 13:57:48;;;;;;;5.80;1.55;;;;;;;18.04;48.97;98744.78;2247142;78;21388;-83